CheckWX is a tool to help pilots better visualize weather data.  It is not intended as a substitute for an official pre-flight weather briefing.

08:05:08 UTC

EGHI TAF
Southampton Airport
Southampton, United Kingdom
TAF EGHI 250624Z 2506/2515 24010KT 9999 SCT025 TEMPO 2507/2515 26017G27KT 7000 SHRA PROB30 TEMPO 2507/2515 3000 +SHRA SHGS BKN010 BKN020CB

Feb-25@
06:00 UTC

Feb-25 @ 06:00 UTC

Feb-25@
15:00 UTC

Feb-25 @ 15:00 UTC

TAF EGHI 250624Z 2506/2515 24010KT 9999 SCT025
Wind
  • 240° at 10 KTS
Cloud Levels
  • Scattered at 2,500' AGL

Feb-25@
07:00 UTC

Feb-25 @ 07:00 UTC

Feb-25@
15:00 UTC

Feb-25 @ 15:00 UTC

PROB30 TEMPO 2507/2515 3000 +SHRA SHGS BKN010 BKN020CB

Temporary - 30% Likelihood

Temporary - 30% Likelihood during this time.

Conditions
Heavy Rain, Small hail
Cloud Levels
  • Broken at 1,000' AGL
  • Broken at 2,000' AGL

Feb-25@
07:00 UTC

Feb-25 @ 07:00 UTC

Feb-25@
15:00 UTC

Feb-25 @ 15:00 UTC

TEMPO 2507/2515 26017G27KT 7000 SHRA

Temporary

Temporary Changes expected for less than half the time period

Wind
  • 260° at 17 KTS
  • {Gusting to 27 KTS
Conditions
Rain